sensor_id;sensor_type;location;lat;lon;timestamp;P1;durP1;ratioP1;P2;durP2;ratioP2
55423;SDS011;41294;42.666;23.350;2023-07-22T00:01:47;9.15;;;6.63;;
55423;SDS011;41294;42.666;23.350;2023-07-22T00:04:13;8.48;;;6.38;;
55423;SDS011;41294;42.666;23.350;2023-07-22T00:06:38;10.98;;;5.90;;
55423;SDS011;41294;42.666;23.350;2023-07-22T00:09:04;11.15;;;6.88;;
55423;SDS011;41294;42.666;23.350;2023-07-22T00:11:29;10.13;;;6.63;;
55423;SDS011;41294;42.666;23.350;2023-07-22T00:13:55;9.45;;;5.65;;
55423;SDS011;41294;42.666;23.350;2023-07-22T00:16:20;9.68;;;5.85;;
55423;SDS011;41294;42.666;23.350;2023-07-22T00:18:46;9.32;;;5.97;;
55423;SDS011;41294;42.666;23.350;2023-07-22T00:21:12;14.15;;;6.07;;
55423;SDS011;41294;42.666;23.350;2023-07-22T00:23:38;8.07;;;5.85;;
55423;SDS011;41294;42.666;23.350;2023-07-22T00:26:04;11.95;;;5.82;;
55423;SDS011;41294;42.666;23.350;2023-07-22T00:28:29;10.07;;;6.07;;
55423;SDS011;41294;42.666;23.350;2023-07-22T00:30:55;7.15;;;5.80;;
55423;SDS011;41294;42.666;23.350;2023-07-22T00:33:22;9.68;;;5.93;;
55423;SDS011;41294;42.666;23.350;2023-07-22T00:35:48;9.60;;;5.95;;
55423;SDS011;41294;42.666;23.350;2023-07-22T00:38:17;11.27;;;6.35;;
55423;SDS011;41294;42.666;23.350;2023-07-22T00:40:44;8.30;;;5.80;;
55423;SDS011;41294;42.666;23.350;2023-07-22T00:43:09;8.30;;;6.25;;
55423;SDS011;41294;42.666;23.350;2023-07-22T00:45:35;7.75;;;6.05;;
55423;SDS011;41294;42.666;23.350;2023-07-22T00:48:01;11.95;;;6.43;;
55423;SDS011;41294;42.666;23.350;2023-07-22T00:50:28;12.02;;;6.57;;
55423;SDS011;41294;42.666;23.350;2023-07-22T00:52:54;9.25;;;6.32;;
55423;SDS011;41294;42.666;23.350;2023-07-22T00:55:19;10.73;;;6.45;;
55423;SDS011;41294;42.666;23.350;2023-07-22T00:57:45;11.40;;;6.20;;
55423;SDS011;41294;42.666;23.350;2023-07-22T01:00:12;10.90;;;6.03;;
55423;SDS011;41294;42.666;23.350;2023-07-22T01:02:39;13.02;;;6.13;;
55423;SDS011;41294;42.666;23.350;2023-07-22T01:05:05;9.75;;;6.30;;
55423;SDS011;41294;42.666;23.350;2023-07-22T01:07:30;8.05;;;6.05;;
55423;SDS011;41294;42.666;23.350;2023-07-22T01:09:56;9.23;;;5.88;;
55423;SDS011;41294;42.666;23.350;2023-07-22T01:12:23;11.63;;;6.00;;
55423;SDS011;41294;42.666;23.350;2023-07-22T01:14:49;10.00;;;6.47;;
55423;SDS011;41294;42.666;23.350;2023-07-22T01:17:15;9.85;;;6.30;;
55423;SDS011;41294;42.666;23.350;2023-07-22T01:19:40;10.10;;;6.38;;
55423;SDS011;41294;42.666;23.350;2023-07-22T01:22:06;8.63;;;6.25;;
55423;SDS011;41294;42.666;23.350;2023-07-22T01:24:32;8.70;;;6.43;;
55423;SDS011;41294;42.666;23.350;2023-07-22T01:26:58;8.23;;;6.68;;
55423;SDS011;41294;42.666;23.350;2023-07-22T01:29:24;10.05;;;6.43;;
55423;SDS011;41294;42.666;23.350;2023-07-22T01:31:52;8.35;;;6.10;;
55423;SDS011;41294;42.666;23.350;2023-07-22T01:34:18;11.25;;;6.00;;
55423;SDS011;41294;42.666;23.350;2023-07-22T01:36:45;8.73;;;5.75;;
55423;SDS011;41294;42.666;23.350;2023-07-22T01:39:12;9.50;;;6.07;;
55423;SDS011;41294;42.666;23.350;2023-07-22T01:41:38;9.77;;;6.45;;
55423;SDS011;41294;42.666;23.350;2023-07-22T01:44:03;9.40;;;6.28;;
55423;SDS011;41294;42.666;23.350;2023-07-22T01:46:29;8.48;;;5.60;;
55423;SDS011;41294;42.666;23.350;2023-07-22T01:48:57;11.55;;;6.20;;
55423;SDS011;41294;42.666;23.350;2023-07-22T01:51:23;9.43;;;5.68;;
55423;SDS011;41294;42.666;23.350;2023-07-22T01:53:48;8.55;;;5.70;;
55423;SDS011;41294;42.666;23.350;2023-07-22T01:56:14;8.82;;;5.68;;
55423;SDS011;41294;42.666;23.350;2023-07-22T01:58:41;5.63;;;5.03;;
55423;SDS011;41294;42.666;23.350;2023-07-22T02:01:07;5.55;;;5.05;;
55423;SDS011;41294;42.666;23.350;2023-07-22T02:03:32;8.65;;;5.95;;
55423;SDS011;41294;42.666;23.350;2023-07-22T02:06:04;6.72;;;5.20;;
55423;SDS011;41294;42.666;23.350;2023-07-22T02:08:29;8.07;;;5.47;;
55423;SDS011;41294;42.666;23.350;2023-07-22T02:11:02;8.38;;;5.60;;
55423;SDS011;41294;42.666;23.350;2023-07-22T02:13:29;7.28;;;5.13;;
55423;SDS011;41294;42.666;23.350;2023-07-22T02:15:55;9.73;;;5.85;;
55423;SDS011;41294;42.666;23.350;2023-07-22T02:18:21;7.93;;;5.00;;
55423;SDS011;41294;42.666;23.350;2023-07-22T02:20:46;6.35;;;5.45;;
55423;SDS011;41294;42.666;23.350;2023-07-22T02:23:12;9.57;;;5.88;;
55423;SDS011;41294;42.666;23.350;2023-07-22T02:25:37;9.93;;;6.00;;
55423;SDS011;41294;42.666;23.350;2023-07-22T02:28:03;9.18;;;5.95;;
55423;SDS011;41294;42.666;23.350;2023-07-22T02:30:28;7.90;;;6.10;;
55423;SDS011;41294;42.666;23.350;2023-07-22T02:32:54;6.55;;;5.28;;
55423;SDS011;41294;42.666;23.350;2023-07-22T02:35:19;8.15;;;6.18;;
55423;SDS011;41294;42.666;23.350;2023-07-22T02:37:45;8.05;;;6.28;;
55423;SDS011;41294;42.666;23.350;2023-07-22T02:40:10;8.55;;;5.45;;
55423;SDS011;41294;42.666;23.350;2023-07-22T02:42:41;7.53;;;5.53;;
55423;SDS011;41294;42.666;23.350;2023-07-22T02:45:07;8.07;;;6.68;;
55423;SDS011;41294;42.666;23.350;2023-07-22T02:47:33;6.85;;;6.10;;
55423;SDS011;41294;42.666;23.350;2023-07-22T02:49:59;8.77;;;6.22;;
55423;SDS011;41294;42.666;23.350;2023-07-22T02:52:25;7.90;;;6.40;;
55423;SDS011;41294;42.666;23.350;2023-07-22T02:55:03;8.80;;;6.25;;
55423;SDS011;41294;42.666;23.350;2023-07-22T02:57:29;8.55;;;6.07;;
55423;SDS011;41294;42.666;23.350;2023-07-22T02:59:54;10.27;;;6.53;;
55423;SDS011;41294;42.666;23.350;2023-07-22T03:02:21;6.70;;;5.70;;
55423;SDS011;41294;42.666;23.350;2023-07-22T03:04:46;8.35;;;5.68;;
55423;SDS011;41294;42.666;23.350;2023-07-22T03:07:12;7.63;;;5.88;;
55423;SDS011;41294;42.666;23.350;2023-07-22T03:09:37;7.05;;;5.82;;
55423;SDS011;41294;42.666;23.350;2023-07-22T03:12:03;6.93;;;5.97;;
55423;SDS011;41294;42.666;23.350;2023-07-22T03:14:30;6.93;;;5.53;;
55423;SDS011;41294;42.666;23.350;2023-07-22T03:17:02;9.25;;;6.53;;
55423;SDS011;41294;42.666;23.350;2023-07-22T03:19:31;10.05;;;6.43;;
55423;SDS011;41294;42.666;23.350;2023-07-22T03:21:56;9.63;;;6.05;;
55423;SDS011;41294;42.666;23.350;2023-07-22T03:24:22;7.70;;;5.82;;
55423;SDS011;41294;42.666;23.350;2023-07-22T03:26:47;8.40;;;6.38;;
55423;SDS011;41294;42.666;23.350;2023-07-22T03:29:12;10.30;;;7.05;;
55423;SDS011;41294;42.666;23.350;2023-07-22T03:31:38;7.30;;;6.32;;
55423;SDS011;41294;42.666;23.350;2023-07-22T03:34:04;8.52;;;6.28;;
55423;SDS011;41294;42.666;23.350;2023-07-22T03:36:29;9.10;;;7.00;;
55423;SDS011;41294;42.666;23.350;2023-07-22T03:38:58;11.90;;;7.63;;
55423;SDS011;41294;42.666;23.350;2023-07-22T03:41:24;8.77;;;6.60;;
55423;SDS011;41294;42.666;23.350;2023-07-22T03:43:49;10.10;;;6.53;;
55423;SDS011;41294;42.666;23.350;2023-07-22T03:46:14;8.65;;;6.43;;
55423;SDS011;41294;42.666;23.350;2023-07-22T03:48:40;8.55;;;7.57;;
55423;SDS011;41294;42.666;23.350;2023-07-22T03:51:05;9.35;;;7.30;;
55423;SDS011;41294;42.666;23.350;2023-07-22T03:53:30;9.02;;;7.10;;
55423;SDS011;41294;42.666;23.350;2023-07-22T03:55:56;9.32;;;6.55;;
55423;SDS011;41294;42.666;23.350;2023-07-22T03:58:21;10.18;;;7.25;;
55423;SDS011;41294;42.666;23.350;2023-07-22T04:00:50;9.15;;;6.35;;
55423;SDS011;41294;42.666;23.350;2023-07-22T04:03:15;9.27;;;6.50;;
55423;SDS011;41294;42.666;23.350;2023-07-22T04:05:41;15.98;;;6.80;;
55423;SDS011;41294;42.666;23.350;2023-07-22T04:08:06;8.77;;;6.25;;
55423;SDS011;41294;42.666;23.350;2023-07-22T04:10:31;10.00;;;6.18;;
55423;SDS011;41294;42.666;23.350;2023-07-22T04:12:57;8.35;;;6.78;;
55423;SDS011;41294;42.666;23.350;2023-07-22T04:15:22;12.80;;;6.40;;
55423;SDS011;41294;42.666;23.350;2023-07-22T04:17:48;13.05;;;6.30;;
55423;SDS011;41294;42.666;23.350;2023-07-22T04:20:13;12.70;;;6.28;;
55423;SDS011;41294;42.666;23.350;2023-07-22T04:22:39;14.80;;;7.75;;
55423;SDS011;41294;42.666;23.350;2023-07-22T04:25:04;10.98;;;6.57;;
55423;SDS011;41294;42.666;23.350;2023-07-22T04:27:30;9.48;;;6.38;;
55423;SDS011;41294;42.666;23.350;2023-07-22T04:29:56;9.02;;;6.15;;
55423;SDS011;41294;42.666;23.350;2023-07-22T04:32:21;15.77;;;6.90;;
55423;SDS011;41294;42.666;23.350;2023-07-22T04:34:47;16.15;;;7.10;;
55423;SDS011;41294;42.666;23.350;2023-07-22T04:37:12;8.95;;;6.68;;
55423;SDS011;41294;42.666;23.350;2023-07-22T04:39:38;9.98;;;7.10;;
55423;SDS011;41294;42.666;23.350;2023-07-22T04:42:03;7.10;;;5.97;;
55423;SDS011;41294;42.666;23.350;2023-07-22T04:44:29;10.02;;;6.50;;
55423;SDS011;41294;42.666;23.350;2023-07-22T04:46:54;12.32;;;6.95;;
55423;SDS011;41294;42.666;23.350;2023-07-22T04:49:20;10.65;;;6.28;;
55423;SDS011;41294;42.666;23.350;2023-07-22T05:02:07;11.68;;;7.38;;
55423;SDS011;41294;42.666;23.350;2023-07-22T05:04:33;9.25;;;8.05;;
55423;SDS011;41294;42.666;23.350;2023-07-22T05:09:26;12.30;;;8.25;;
55423;SDS011;41294;42.666;23.350;2023-07-22T05:11:51;12.85;;;7.43;;
55423;SDS011;41294;42.666;23.350;2023-07-22T05:14:16;10.70;;;7.30;;
55423;SDS011;41294;42.666;23.350;2023-07-22T05:16:42;9.90;;;7.70;;
55423;SDS011;41294;42.666;23.350;2023-07-22T05:19:07;11.57;;;8.13;;
55423;SDS011;41294;42.666;23.350;2023-07-22T05:21:33;11.15;;;7.40;;
55423;SDS011;41294;42.666;23.350;2023-07-22T05:23:58;11.25;;;7.53;;
55423;SDS011;41294;42.666;23.350;2023-07-22T05:26:24;11.07;;;7.53;;
55423;SDS011;41294;42.666;23.350;2023-07-22T05:28:49;9.43;;;6.65;;
55423;SDS011;41294;42.666;23.350;2023-07-22T05:31:15;9.48;;;7.07;;
55423;SDS011;41294;42.666;23.350;2023-07-22T05:33:41;11.57;;;7.60;;
55423;SDS011;41294;42.666;23.350;2023-07-22T05:36:07;8.93;;;6.75;;
55423;SDS011;41294;42.666;23.350;2023-07-22T05:38:32;10.38;;;7.07;;
55423;SDS011;41294;42.666;23.350;2023-07-22T05:40:58;9.75;;;7.20;;
55423;SDS011;41294;42.666;23.350;2023-07-22T05:43:23;9.00;;;7.45;;
55423;SDS011;41294;42.666;23.350;2023-07-22T05:45:49;9.98;;;7.13;;
55423;SDS011;41294;42.666;23.350;2023-07-22T05:48:14;7.78;;;6.97;;
55423;SDS011;41294;42.666;23.350;2023-07-22T05:50:40;11.68;;;6.85;;
55423;SDS011;41294;42.666;23.350;2023-07-22T05:53:06;13.63;;;7.45;;
55423;SDS011;41294;42.666;23.350;2023-07-22T05:55:31;9.93;;;7.13;;
55423;SDS011;41294;42.666;23.350;2023-07-22T05:57:57;11.77;;;7.40;;
55423;SDS011;41294;42.666;23.350;2023-07-22T06:00:22;9.35;;;7.10;;
55423;SDS011;41294;42.666;23.350;2023-07-22T06:02:48;12.25;;;7.70;;
55423;SDS011;41294;42.666;23.350;2023-07-22T06:05:14;12.10;;;7.38;;
55423;SDS011;41294;42.666;23.350;2023-07-22T06:07:39;9.50;;;7.35;;
55423;SDS011;41294;42.666;23.350;2023-07-22T06:10:05;11.10;;;8.43;;
55423;SDS011;41294;42.666;23.350;2023-07-22T06:12:31;9.43;;;7.78;;
55423;SDS011;41294;42.666;23.350;2023-07-22T06:14:56;11.50;;;7.18;;
55423;SDS011;41294;42.666;23.350;2023-07-22T06:17:22;8.93;;;7.72;;
55423;SDS011;41294;42.666;23.350;2023-07-22T06:19:48;12.38;;;8.25;;
55423;SDS011;41294;42.666;23.350;2023-07-22T06:22:13;11.95;;;8.23;;
55423;SDS011;41294;42.666;23.350;2023-07-22T06:24:39;10.50;;;7.38;;
55423;SDS011;41294;42.666;23.350;2023-07-22T06:27:04;9.95;;;7.57;;
55423;SDS011;41294;42.666;23.350;2023-07-22T06:29:30;10.57;;;7.47;;
55423;SDS011;41294;42.666;23.350;2023-07-22T06:31:55;9.63;;;6.88;;
55423;SDS011;41294;42.666;23.350;2023-07-22T06:34:21;9.35;;;6.95;;
55423;SDS011;41294;42.666;23.350;2023-07-22T06:36:46;9.20;;;7.25;;
55423;SDS011;41294;42.666;23.350;2023-07-22T06:39:12;10.13;;;7.00;;
55423;SDS011;41294;42.666;23.350;2023-07-22T06:41:38;11.18;;;7.13;;
55423;SDS011;41294;42.666;23.350;2023-07-22T06:44:03;8.98;;;6.55;;
55423;SDS011;41294;42.666;23.350;2023-07-22T06:46:28;13.43;;;7.30;;
55423;SDS011;41294;42.666;23.350;2023-07-22T06:48:54;10.23;;;6.90;;
55423;SDS011;41294;42.666;23.350;2023-07-22T06:51:19;8.15;;;6.97;;
55423;SDS011;41294;42.666;23.350;2023-07-22T06:53:45;10.27;;;6.85;;
55423;SDS011;41294;42.666;23.350;2023-07-22T06:56:11;8.25;;;6.43;;
55423;SDS011;41294;42.666;23.350;2023-07-22T06:58:36;12.00;;;7.60;;
55423;SDS011;41294;42.666;23.350;2023-07-22T07:01:02;10.52;;;6.78;;
55423;SDS011;41294;42.666;23.350;2023-07-22T07:03:27;10.73;;;6.97;;
55423;SDS011;41294;42.666;23.350;2023-07-22T07:05:53;8.80;;;6.80;;
55423;SDS011;41294;42.666;23.350;2023-07-22T07:08:19;9.77;;;6.97;;
55423;SDS011;41294;42.666;23.350;2023-07-22T07:10:45;12.23;;;6.38;;
55423;SDS011;41294;42.666;23.350;2023-07-22T07:13:10;12.00;;;7.18;;
55423;SDS011;41294;42.666;23.350;2023-07-22T07:15:35;10.00;;;6.57;;
55423;SDS011;41294;42.666;23.350;2023-07-22T07:18:01;10.07;;;7.10;;
55423;SDS011;41294;42.666;23.350;2023-07-22T07:20:26;10.98;;;6.80;;
55423;SDS011;41294;42.666;23.350;2023-07-22T07:22:52;7.90;;;6.88;;
55423;SDS011;41294;42.666;23.350;2023-07-22T07:25:17;11.63;;;6.47;;
55423;SDS011;41294;42.666;23.350;2023-07-22T07:27:42;9.52;;;6.57;;
55423;SDS011;41294;42.666;23.350;2023-07-22T07:30:08;10.07;;;7.75;;
55423;SDS011;41294;42.666;23.350;2023-07-22T07:32:35;9.30;;;7.07;;
55423;SDS011;41294;42.666;23.350;2023-07-22T07:35:00;7.85;;;7.05;;
55423;SDS011;41294;42.666;23.350;2023-07-22T07:37:26;10.02;;;6.93;;
55423;SDS011;41294;42.666;23.350;2023-07-22T07:42:17;10.80;;;6.80;;
55423;SDS011;41294;42.666;23.350;2023-07-22T07:44:42;13.05;;;7.93;;
55423;SDS011;41294;42.666;23.350;2023-07-22T07:47:07;12.98;;;8.10;;
55423;SDS011;41294;42.666;23.350;2023-07-22T07:49:33;11.48;;;7.50;;
55423;SDS011;41294;42.666;23.350;2023-07-22T07:51:58;13.70;;;7.65;;
55423;SDS011;41294;42.666;23.350;2023-07-22T07:54:24;10.55;;;8.52;;
55423;SDS011;41294;42.666;23.350;2023-07-22T07:56:49;12.98;;;7.95;;
55423;SDS011;41294;42.666;23.350;2023-07-22T07:59:14;13.25;;;7.32;;
55423;SDS011;41294;42.666;23.350;2023-07-22T08:01:40;11.18;;;8.40;;
55423;SDS011;41294;42.666;23.350;2023-07-22T08:04:07;11.10;;;8.10;;
55423;SDS011;41294;42.666;23.350;2023-07-22T08:06:33;15.85;;;7.78;;
55423;SDS011;41294;42.666;23.350;2023-07-22T08:08:59;11.60;;;7.60;;
55423;SDS011;41294;42.666;23.350;2023-07-22T08:11:24;12.18;;;8.50;;
55423;SDS011;41294;42.666;23.350;2023-07-22T08:13:49;10.77;;;8.02;;
55423;SDS011;41294;42.666;23.350;2023-07-22T08:16:16;14.75;;;7.68;;
55423;SDS011;41294;42.666;23.350;2023-07-22T08:18:43;17.63;;;8.18;;
55423;SDS011;41294;42.666;23.350;2023-07-22T08:21:08;9.10;;;7.32;;
55423;SDS011;41294;42.666;23.350;2023-07-22T08:23:34;12.25;;;7.90;;
55423;SDS011;41294;42.666;23.350;2023-07-22T08:26:01;15.48;;;9.43;;
55423;SDS011;41294;42.666;23.350;2023-07-22T08:28:29;15.90;;;8.00;;
55423;SDS011;41294;42.666;23.350;2023-07-22T08:30:55;10.50;;;7.47;;
55423;SDS011;41294;42.666;23.350;2023-07-22T08:33:22;11.85;;;7.13;;
55423;SDS011;41294;42.666;23.350;2023-07-22T08:35:48;14.82;;;8.13;;
55423;SDS011;41294;42.666;23.350;2023-07-22T08:38:15;12.73;;;8.07;;
55423;SDS011;41294;42.666;23.350;2023-07-22T08:40:40;10.68;;;7.88;;
55423;SDS011;41294;42.666;23.350;2023-07-22T08:43:08;12.05;;;7.78;;
55423;SDS011;41294;42.666;23.350;2023-07-22T08:45:36;9.60;;;7.93;;
55423;SDS011;41294;42.666;23.350;2023-07-22T08:48:03;12.80;;;8.95;;
55423;SDS011;41294;42.666;23.350;2023-07-22T08:50:35;12.63;;;9.05;;
55423;SDS011;41294;42.666;23.350;2023-07-22T08:53:09;10.13;;;7.95;;
55423;SDS011;41294;42.666;23.350;2023-07-22T08:55:35;11.15;;;8.23;;
55423;SDS011;41294;42.666;23.350;2023-07-22T08:58:01;12.88;;;8.23;;
55423;SDS011;41294;42.666;23.350;2023-07-22T09:00:27;13.70;;;8.35;;
55423;SDS011;41294;42.666;23.350;2023-07-22T09:02:53;12.95;;;7.75;;
55423;SDS011;41294;42.666;23.350;2023-07-22T09:05:19;9.35;;;8.07;;
55423;SDS011;41294;42.666;23.350;2023-07-22T09:07:46;12.18;;;8.20;;
55423;SDS011;41294;42.666;23.350;2023-07-22T09:10:13;10.23;;;7.50;;
55423;SDS011;41294;42.666;23.350;2023-07-22T09:12:41;13.02;;;7.93;;
55423;SDS011;41294;42.666;23.350;2023-07-22T09:15:10;13.02;;;7.70;;
55423;SDS011;41294;42.666;23.350;2023-07-22T09:17:38;15.30;;;8.45;;
55423;SDS011;41294;42.666;23.350;2023-07-22T09:20:04;12.35;;;8.50;;
55423;SDS011;41294;42.666;23.350;2023-07-22T09:22:31;11.95;;;8.07;;
55423;SDS011;41294;42.666;23.350;2023-07-22T09:27:39;12.70;;;8.73;;
55423;SDS011;41294;42.666;23.350;2023-07-22T09:30:17;13.80;;;8.27;;
55423;SDS011;41294;42.666;23.350;2023-07-22T09:32:46;13.68;;;8.13;;
55423;SDS011;41294;42.666;23.350;2023-07-22T09:35:11;10.65;;;7.55;;
55423;SDS011;41294;42.666;23.350;2023-07-22T09:37:37;10.73;;;7.82;;
55423;SDS011;41294;42.666;23.350;2023-07-22T09:42:49;13.52;;;8.05;;
55423;SDS011;41294;42.666;23.350;2023-07-22T09:45:19;11.07;;;8.63;;
55423;SDS011;41294;42.666;23.350;2023-07-22T09:47:47;15.75;;;8.38;;
55423;SDS011;41294;42.666;23.350;2023-07-22T09:50:15;16.02;;;8.63;;
55423;SDS011;41294;42.666;23.350;2023-07-22T09:52:46;11.05;;;7.38;;
55423;SDS011;41294;42.666;23.350;2023-07-22T09:55:19;12.70;;;8.00;;
55423;SDS011;41294;42.666;23.350;2023-07-22T09:57:46;12.10;;;8.13;;
55423;SDS011;41294;42.666;23.350;2023-07-22T10:00:15;10.50;;;7.43;;
55423;SDS011;41294;42.666;23.350;2023-07-22T10:02:43;16.65;;;8.60;;
55423;SDS011;41294;42.666;23.350;2023-07-22T10:05:13;13.25;;;8.10;;
55423;SDS011;41294;42.666;23.350;2023-07-22T10:07:43;13.25;;;8.45;;
55423;SDS011;41294;42.666;23.350;2023-07-22T10:10:11;16.52;;;9.00;;
55423;SDS011;41294;42.666;23.350;2023-07-22T10:12:40;13.68;;;8.27;;
55423;SDS011;41294;42.666;23.350;2023-07-22T10:15:10;13.68;;;8.45;;
55423;SDS011;41294;42.666;23.350;2023-07-22T10:17:37;21.17;;;8.50;;
55423;SDS011;41294;42.666;23.350;2023-07-22T10:20:03;13.63;;;7.70;;
55423;SDS011;41294;42.666;23.350;2023-07-22T10:22:34;15.10;;;7.88;;
55423;SDS011;41294;42.666;23.350;2023-07-22T10:25:00;12.68;;;7.63;;
55423;SDS011;41294;42.666;23.350;2023-07-22T10:27:26;14.18;;;7.50;;
55423;SDS011;41294;42.666;23.350;2023-07-22T10:29:53;16.33;;;7.00;;
55423;SDS011;41294;42.666;23.350;2023-07-22T10:32:19;13.45;;;7.97;;
55423;SDS011;41294;42.666;23.350;2023-07-22T10:34:44;12.70;;;7.07;;
55423;SDS011;41294;42.666;23.350;2023-07-22T10:37:09;11.52;;;6.80;;
55423;SDS011;41294;42.666;23.350;2023-07-22T10:39:36;13.93;;;7.57;;
55423;SDS011;41294;42.666;23.350;2023-07-22T10:42:05;15.35;;;7.18;;
55423;SDS011;41294;42.666;23.350;2023-07-22T10:44:31;16.48;;;7.20;;
55423;SDS011;41294;42.666;23.350;2023-07-22T10:46:58;13.43;;;7.45;;
55423;SDS011;41294;42.666;23.350;2023-07-22T10:49:24;16.35;;;6.88;;
55423;SDS011;41294;42.666;23.350;2023-07-22T10:51:53;17.15;;;7.43;;
55423;SDS011;41294;42.666;23.350;2023-07-22T10:54:34;14.57;;;7.13;;
55423;SDS011;41294;42.666;23.350;2023-07-22T10:57:22;15.38;;;6.28;;
55423;SDS011;41294;42.666;23.350;2023-07-22T10:59:50;20.10;;;6.82;;
55423;SDS011;41294;42.666;23.350;2023-07-22T11:02:27;15.40;;;6.57;;
55423;SDS011;41294;42.666;23.350;2023-07-22T11:04:57;23.52;;;7.03;;
55423;SDS011;41294;42.666;23.350;2023-07-22T11:07:34;20.73;;;6.78;;
55423;SDS011;41294;42.666;23.350;2023-07-22T11:10:13;20.55;;;6.95;;
55423;SDS011;41294;42.666;23.350;2023-07-22T11:12:42;17.75;;;6.43;;
55423;SDS011;41294;42.666;23.350;2023-07-22T11:15:09;13.80;;;6.10;;
55423;SDS011;41294;42.666;23.350;2023-07-22T11:17:34;18.23;;;6.90;;
55423;SDS011;41294;42.666;23.350;2023-07-22T11:20:00;15.45;;;5.90;;
55423;SDS011;41294;42.666;23.350;2023-07-22T11:22:26;18.90;;;6.28;;
55423;SDS011;41294;42.666;23.350;2023-07-22T11:24:54;20.00;;;6.45;;
55423;SDS011;41294;42.666;23.350;2023-07-22T11:27:20;21.85;;;6.10;;
55423;SDS011;41294;42.666;23.350;2023-07-22T11:29:46;15.32;;;6.28;;
55423;SDS011;41294;42.666;23.350;2023-07-22T11:32:17;21.40;;;6.75;;
55423;SDS011;41294;42.666;23.350;2023-07-22T11:34:44;20.00;;;6.63;;
55423;SDS011;41294;42.666;23.350;2023-07-22T11:37:10;15.80;;;6.43;;
55423;SDS011;41294;42.666;23.350;2023-07-22T11:39:36;17.00;;;6.20;;
55423;SDS011;41294;42.666;23.350;2023-07-22T11:42:03;18.95;;;6.82;;
55423;SDS011;41294;42.666;23.350;2023-07-22T11:44:29;20.20;;;6.60;;
55423;SDS011;41294;42.666;23.350;2023-07-22T11:47:02;16.65;;;6.60;;
55423;SDS011;41294;42.666;23.350;2023-07-22T11:49:38;20.15;;;6.80;;
55423;SDS011;41294;42.666;23.350;2023-07-22T11:54:50;21.95;;;7.13;;
55423;SDS011;41294;42.666;23.350;2023-07-22T11:57:16;21.02;;;6.28;;
55423;SDS011;41294;42.666;23.350;2023-07-22T11:59:49;29.95;;;7.00;;
55423;SDS011;41294;42.666;23.350;2023-07-22T12:02:17;18.98;;;6.28;;
55423;SDS011;41294;42.666;23.350;2023-07-22T12:04:54;51.85;;;40.40;;
55423;SDS011;41294;42.666;23.350;2023-07-22T12:07:26;28.13;;;10.18;;
55423;SDS011;41294;42.666;23.350;2023-07-22T12:09:59;20.75;;;6.60;;
55423;SDS011;41294;42.666;23.350;2023-07-22T12:15:09;20.05;;;6.53;;
55423;SDS011;41294;42.666;23.350;2023-07-22T12:20:15;20.77;;;7.13;;
55423;SDS011;41294;42.666;23.350;2023-07-22T12:22:41;18.02;;;6.00;;
55423;SDS011;41294;42.666;23.350;2023-07-22T12:25:08;19.90;;;6.47;;
55423;SDS011;41294;42.666;23.350;2023-07-22T12:27:33;20.95;;;6.90;;
55423;SDS011;41294;42.666;23.350;2023-07-22T12:29:59;19.48;;;6.93;;
55423;SDS011;41294;42.666;23.350;2023-07-22T12:32:24;18.98;;;6.85;;
55423;SDS011;41294;42.666;23.350;2023-07-22T12:34:50;22.70;;;6.72;;
55423;SDS011;41294;42.666;23.350;2023-07-22T12:37:15;24.88;;;6.57;;
55423;SDS011;41294;42.666;23.350;2023-07-22T12:39:41;20.95;;;7.15;;
55423;SDS011;41294;42.666;23.350;2023-07-22T12:42:06;22.45;;;7.30;;
55423;SDS011;41294;42.666;23.350;2023-07-22T12:44:32;18.48;;;7.22;;
55423;SDS011;41294;42.666;23.350;2023-07-22T12:46:57;20.02;;;6.90;;
55423;SDS011;41294;42.666;23.350;2023-07-22T12:49:22;21.20;;;6.80;;
55423;SDS011;41294;42.666;23.350;2023-07-22T12:51:48;18.52;;;6.57;;
55423;SDS011;41294;42.666;23.350;2023-07-22T12:54:15;20.63;;;6.88;;
55423;SDS011;41294;42.666;23.350;2023-07-22T12:57:11;18.63;;;6.22;;
55423;SDS011;41294;42.666;23.350;2023-07-22T12:59:37;19.38;;;6.78;;
55423;SDS011;41294;42.666;23.350;2023-07-22T13:02:03;19.70;;;6.50;;
55423;SDS011;41294;42.666;23.350;2023-07-22T13:04:31;15.82;;;6.65;;
55423;SDS011;41294;42.666;23.350;2023-07-22T13:06:57;21.98;;;6.22;;
55423;SDS011;41294;42.666;23.350;2023-07-22T13:09:23;24.02;;;6.20;;
55423;SDS011;41294;42.666;23.350;2023-07-22T13:11:50;19.67;;;6.82;;
55423;SDS011;41294;42.666;23.350;2023-07-22T13:14:16;19.65;;;7.10;;
55423;SDS011;41294;42.666;23.350;2023-07-22T13:16:48;20.48;;;6.25;;
55423;SDS011;41294;42.666;23.350;2023-07-22T13:19:21;19.15;;;6.70;;
55423;SDS011;41294;42.666;23.350;2023-07-22T13:21:56;16.52;;;7.05;;
55423;SDS011;41294;42.666;23.350;2023-07-22T13:24:26;20.20;;;7.47;;
55423;SDS011;41294;42.666;23.350;2023-07-22T13:26:57;19.45;;;6.40;;
55423;SDS011;41294;42.666;23.350;2023-07-22T13:29:23;15.70;;;6.35;;
55423;SDS011;41294;42.666;23.350;2023-07-22T13:31:48;16.17;;;6.30;;
55423;SDS011;41294;42.666;23.350;2023-07-22T13:34:14;24.58;;;6.75;;
55423;SDS011;41294;42.666;23.350;2023-07-22T13:36:40;16.15;;;6.88;;
55423;SDS011;41294;42.666;23.350;2023-07-22T13:39:05;16.38;;;6.95;;
55423;SDS011;41294;42.666;23.350;2023-07-22T13:41:31;12.10;;;6.03;;
55423;SDS011;41294;42.666;23.350;2023-07-22T13:43:56;23.42;;;6.70;;
55423;SDS011;41294;42.666;23.350;2023-07-22T13:46:22;22.70;;;6.65;;
55423;SDS011;41294;42.666;23.350;2023-07-22T13:48:47;21.23;;;6.32;;
55423;SDS011;41294;42.666;23.350;2023-07-22T13:51:13;21.20;;;8.13;;
55423;SDS011;41294;42.666;23.350;2023-07-22T13:53:38;17.13;;;6.47;;
55423;SDS011;41294;42.666;23.350;2023-07-22T13:56:04;17.40;;;5.93;;
55423;SDS011;41294;42.666;23.350;2023-07-22T13:58:29;21.70;;;7.03;;
55423;SDS011;41294;42.666;23.350;2023-07-22T14:00:55;22.15;;;6.85;;
55423;SDS011;41294;42.666;23.350;2023-07-22T14:03:20;19.58;;;6.68;;
55423;SDS011;41294;42.666;23.350;2023-07-22T14:05:45;20.73;;;6.65;;
55423;SDS011;41294;42.666;23.350;2023-07-22T14:08:11;22.83;;;6.30;;
55423;SDS011;41294;42.666;23.350;2023-07-22T14:10:37;16.55;;;6.00;;
55423;SDS011;41294;42.666;23.350;2023-07-22T14:13:02;22.35;;;6.50;;
55423;SDS011;41294;42.666;23.350;2023-07-22T14:15:27;21.25;;;6.70;;
55423;SDS011;41294;42.666;23.350;2023-07-22T14:17:53;20.58;;;6.00;;
55423;SDS011;41294;42.666;23.350;2023-07-22T14:20:19;19.80;;;6.28;;
55423;SDS011;41294;42.666;23.350;2023-07-22T14:22:44;20.15;;;6.32;;
55423;SDS011;41294;42.666;23.350;2023-07-22T14:25:10;19.50;;;6.47;;
55423;SDS011;41294;42.666;23.350;2023-07-22T14:27:37;19.98;;;6.97;;
55423;SDS011;41294;42.666;23.350;2023-07-22T14:30:03;20.02;;;6.60;;
55423;SDS011;41294;42.666;23.350;2023-07-22T14:32:30;20.45;;;6.55;;
55423;SDS011;41294;42.666;23.350;2023-07-22T14:34:56;22.98;;;6.10;;
55423;SDS011;41294;42.666;23.350;2023-07-22T14:37:21;18.48;;;6.10;;
55423;SDS011;41294;42.666;23.350;2023-07-22T14:39:47;18.17;;;6.97;;
55423;SDS011;41294;42.666;23.350;2023-07-22T14:42:12;16.98;;;6.07;;
55423;SDS011;41294;42.666;23.350;2023-07-22T14:44:38;11.95;;;5.47;;
55423;SDS011;41294;42.666;23.350;2023-07-22T14:47:03;25.50;;;16.00;;
55423;SDS011;41294;42.666;23.350;2023-07-22T14:49:29;21.45;;;6.82;;
55423;SDS011;41294;42.666;23.350;2023-07-22T14:51:54;22.35;;;6.68;;